createdAt,value
2019-03-06T00:01:03.705Z,2.73
2019-03-06T00:03:34.400Z,2.37
2019-03-06T00:06:16.244Z,2.27
2019-03-06T00:08:41.518Z,2.67
2019-03-06T00:11:14.440Z,2.60
2019-03-06T00:13:44.830Z,2.70
2019-03-06T00:16:17.246Z,2.50
2019-03-06T00:18:49.640Z,2.50
2019-03-06T00:21:21.797Z,2.52
2019-03-06T00:23:53.639Z,2.60
2019-03-06T00:26:27.537Z,2.80
2019-03-06T00:28:57.528Z,2.90
2019-03-06T00:31:28.760Z,2.40
2019-03-06T00:33:59.331Z,2.70
2019-03-06T00:36:31.808Z,3.05
2019-03-06T00:39:02.165Z,2.70
2019-03-06T00:41:41.086Z,3.20
2019-03-06T00:44:12.414Z,2.90
2019-03-06T00:46:44.331Z,2.98
2019-03-06T00:49:14.595Z,3.33
2019-03-06T00:51:47.939Z,3.60
2019-03-06T00:54:19.850Z,4.00
2019-03-06T00:57:00.508Z,4.46
2019-03-06T00:59:29.307Z,4.80
2019-03-06T01:02:05.258Z,4.60
2019-03-06T01:05:33.099Z,4.73
2019-03-06T01:07:09.516Z,4.62
2019-03-06T01:09:39.812Z,4.47
2019-03-06T01:12:17.346Z,4.37
2019-03-06T01:14:47.936Z,4.97
2019-03-06T01:17:18.514Z,5.25
2019-03-06T01:19:49.474Z,5.00
2019-03-06T01:22:24.467Z,5.13
2019-03-06T01:24:54.784Z,5.67
2019-03-06T01:27:27.939Z,5.70
2019-03-06T01:29:59.881Z,5.97
2019-03-06T01:32:30.648Z,6.10
2019-03-06T01:35:28.984Z,6.27
2019-03-06T01:38:29.208Z,6.47
2019-03-06T01:41:21.486Z,6.03
2019-03-06T01:44:01.180Z,6.30
2019-03-06T01:46:32.281Z,6.37
2019-03-06T01:49:04.035Z,7.13
2019-03-06T01:51:36.547Z,7.57
2019-03-06T01:54:11.379Z,7.83
2019-03-06T01:56:42.475Z,7.44
2019-03-06T01:59:17.952Z,7.50
2019-03-06T02:01:46.549Z,8.58
2019-03-06T02:04:44.570Z,7.97
2019-03-06T02:07:09.718Z,7.50
2019-03-06T02:09:40.291Z,7.97
2019-03-06T02:12:11.008Z,8.30
2019-03-06T02:14:41.396Z,8.50
2019-03-06T02:17:13.766Z,9.38
2019-03-06T02:19:44.350Z,8.60
2019-03-06T02:22:16.493Z,9.03
2019-03-06T02:24:46.970Z,9.23
2019-03-06T02:27:19.271Z,9.53
2019-03-06T02:30:15.647Z,10.53
2019-03-06T02:32:43.059Z,9.37
2019-03-06T02:35:15.779Z,9.35
2019-03-06T02:37:47.255Z,9.80
2019-03-06T02:40:20.365Z,9.72
2019-03-06T02:42:50.845Z,9.93
2019-03-06T02:45:25.124Z,9.60
2019-03-06T02:47:55.490Z,9.73
2019-03-06T02:50:28.593Z,9.40
2019-03-06T02:52:58.857Z,9.73
2019-03-06T02:55:33.248Z,10.50
2019-03-06T02:58:25.622Z,9.50
2019-03-06T03:01:21.113Z,10.03
2019-03-06T03:04:18.568Z,9.73
2019-03-06T03:07:01.271Z,9.83
2019-03-06T03:09:36.539Z,9.10
2019-03-06T03:12:07.219Z,9.45
2019-03-06T03:14:41.748Z,10.27
2019-03-06T03:17:12.366Z,8.87
2019-03-06T03:19:46.903Z,8.70
2019-03-06T03:22:18.781Z,8.03
2019-03-06T03:24:54.980Z,7.80
2019-03-06T03:27:21.689Z,7.90
2019-03-06T03:29:55.760Z,8.07
2019-03-06T03:32:26.350Z,8.08
2019-03-06T03:34:58.197Z,7.97
2019-03-06T03:37:28.822Z,8.03
2019-03-06T03:40:04.112Z,7.93
2019-03-06T03:42:34.691Z,8.35
2019-03-06T03:45:07.683Z,7.87
2019-03-06T03:47:37.949Z,8.60
2019-03-06T03:50:10.427Z,8.87
2019-03-06T03:52:42.857Z,8.90
2019-03-06T03:55:15.274Z,8.03
2019-03-06T03:57:45.709Z,8.17
2019-03-06T04:00:16.765Z,7.97
2019-03-06T04:02:48.941Z,8.47
2019-03-06T04:05:25.725Z,8.80
2019-03-06T04:07:56.121Z,8.37
2019-03-06T04:10:28.063Z,7.77
2019-03-06T04:12:58.704Z,7.67
2019-03-06T04:15:30.080Z,8.70
2019-03-06T04:18:00.724Z,8.08
2019-03-06T04:20:31.062Z,8.07
2019-03-06T04:23:01.356Z,7.90
2019-03-06T04:25:37.193Z,8.23
2019-03-06T04:28:07.815Z,7.57
2019-03-06T04:30:50.041Z,7.67
2019-03-06T04:33:21.949Z,7.13
2019-03-06T04:35:52.274Z,7.80
2019-03-06T04:38:23.071Z,7.40
2019-03-06T04:40:55.660Z,8.70
2019-03-06T04:43:30.625Z,7.80
2019-03-06T04:46:04.985Z,8.57
2019-03-06T04:48:36.671Z,8.10
2019-03-06T04:51:07.056Z,8.30
2019-03-06T04:53:37.846Z,7.85
2019-03-06T04:56:13.764Z,9.13
2019-03-06T04:58:43.490Z,7.80
2019-03-06T05:01:15.222Z,7.87
2019-03-06T05:03:45.524Z,7.93
2019-03-06T05:06:30.795Z,7.50
2019-03-06T05:08:52.662Z,7.93
2019-03-06T05:11:26.842Z,7.30
2019-03-06T05:13:59.048Z,8.00
2019-03-06T05:17:12.834Z,8.17
2019-03-06T05:20:15.819Z,7.93
2019-03-06T05:22:26.106Z,7.77
2019-03-06T05:24:57.981Z,7.07
2019-03-06T05:27:30.284Z,8.03
2019-03-06T05:30:07.893Z,7.12
2019-03-06T05:32:38.865Z,7.45
2019-03-06T05:35:34.201Z,7.17
2019-03-06T05:38:18.222Z,7.13
2019-03-06T05:41:00.352Z,6.30
2019-03-06T05:43:25.978Z,7.10
2019-03-06T05:45:56.523Z,7.07
2019-03-06T05:48:28.593Z,6.33
2019-03-06T05:51:02.091Z,6.77
2019-03-06T05:53:32.666Z,6.20
2019-03-06T05:56:03.115Z,5.93
2019-03-06T05:58:33.720Z,6.20
2019-03-06T06:01:13.093Z,6.50
2019-03-06T06:03:45.077Z,6.03
2019-03-06T06:06:15.385Z,5.43
2019-03-06T06:08:45.816Z,5.80
2019-03-06T06:11:16.350Z,5.60
2019-03-06T06:13:46.962Z,5.20
2019-03-06T06:16:21.101Z,5.77
2019-03-06T06:18:52.371Z,5.72
2019-03-06T06:21:41.139Z,5.10
2019-03-06T06:24:31.434Z,4.67
2019-03-06T06:27:06.282Z,5.10
2019-03-06T06:29:37.425Z,4.63
2019-03-06T06:32:11.815Z,5.03
2019-03-06T06:34:42.491Z,4.60
2019-03-06T06:37:14.695Z,4.50
2019-03-06T06:39:44.991Z,4.80
2019-03-06T06:42:19.641Z,5.03
2019-03-06T06:44:51.671Z,4.80
2019-03-06T06:47:23.696Z,4.90
2019-03-06T06:49:54.181Z,4.70
2019-03-06T06:53:21.066Z,4.17
2019-03-06T06:56:06.156Z,4.90
2019-03-06T06:59:39.803Z,4.43
2019-03-06T07:02:09.090Z,4.67
2019-03-06T07:05:35.825Z,4.60
2019-03-06T07:08:32.019Z,4.43
2019-03-06T07:11:25.593Z,5.37
2019-03-06T07:14:24.367Z,4.90
2019-03-06T07:17:12.516Z,5.13
2019-03-06T07:20:04.779Z,5.10
2019-03-06T07:22:54.437Z,4.90
2019-03-06T07:25:42.482Z,5.43
2019-03-06T07:28:35.832Z,4.97
2019-03-06T07:31:38.440Z,5.00
2019-03-06T07:34:19.349Z,4.90
2019-03-06T07:37:00.092Z,5.10
2019-03-06T07:39:35.217Z,4.73
2019-03-06T07:42:23.392Z,4.33
2019-03-06T07:45:55.316Z,4.20
2019-03-06T07:48:34.583Z,4.60
2019-03-06T07:51:37.583Z,4.30
2019-03-06T07:54:26.020Z,4.37
2019-03-06T07:57:07.103Z,4.17
2019-03-06T07:59:37.664Z,4.77
2019-03-06T08:02:15.541Z,4.17
2019-03-06T08:04:52.339Z,4.13
2019-03-06T08:07:30.946Z,3.45
2019-03-06T08:10:10.511Z,4.13
2019-03-06T08:13:00.029Z,3.97
2019-03-06T08:16:04.924Z,4.07
2019-03-06T08:19:05.410Z,3.47
2019-03-06T08:21:49.209Z,3.47
2019-03-06T08:24:40.958Z,3.30
2019-03-06T08:27:28.528Z,3.37
2019-03-06T08:29:52.043Z,3.93
2019-03-06T08:32:41.742Z,3.37
2019-03-06T08:35:12.054Z,2.97
2019-03-06T08:37:44.618Z,3.00
2019-03-06T08:40:15.632Z,2.83
2019-03-06T08:42:48.562Z,2.48
2019-03-06T08:45:23.510Z,2.40
2019-03-06T08:48:00.547Z,2.60
2019-03-06T08:50:48.619Z,2.60
2019-03-06T08:53:37.904Z,2.27
2019-03-06T08:56:25.798Z,2.43
2019-03-06T08:59:10.797Z,2.30
2019-03-06T09:02:04.789Z,2.30
2019-03-06T09:04:55.154Z,2.47
2019-03-06T09:07:48.303Z,2.20
2019-03-06T09:10:47.547Z,2.23
2019-03-06T09:13:43.819Z,2.20
2019-03-06T09:16:33.505Z,2.43
2019-03-06T09:19:33.196Z,2.12
2019-03-06T09:22:26.517Z,1.90
2019-03-06T09:25:23.401Z,2.23
2019-03-06T09:28:12.893Z,1.90
2019-03-06T09:31:04.641Z,1.93
2019-03-06T09:34:01.611Z,1.70
2019-03-06T09:36:37.764Z,2.13
2019-03-06T09:39:29.292Z,1.77
2019-03-06T09:42:18.592Z,1.90
2019-03-06T09:45:20.747Z,1.72
2019-03-06T09:48:15.287Z,1.82
2019-03-06T09:51:03.360Z,1.80
2019-03-06T09:53:50.872Z,1.63
2019-03-06T09:56:55.875Z,1.60
2019-03-06T09:59:31.070Z,1.50
2019-03-06T10:02:19.114Z,1.57
2019-03-06T10:05:10.722Z,1.57
2019-03-06T10:07:53.180Z,1.70
2019-03-06T10:10:57.253Z,1.37
2019-03-06T10:13:42.125Z,1.70
2019-03-06T10:16:26.168Z,1.45
2019-03-06T10:19:11.263Z,1.40
2019-03-06T10:21:43.149Z,1.20
2019-03-06T10:24:14.892Z,1.30
2019-03-06T10:26:45.190Z,1.13
2019-03-06T10:29:15.803Z,1.30
2019-03-06T10:31:46.188Z,1.40
2019-03-06T10:34:17.376Z,1.46
2019-03-06T10:36:51.001Z,1.60
2019-03-06T10:39:22.205Z,1.28
2019-03-06T10:41:52.529Z,1.53
2019-03-06T10:44:29.619Z,1.26
2019-03-06T10:47:00.064Z,1.47
2019-03-06T10:49:30.363Z,1.50
2019-03-06T10:52:00.715Z,1.30
2019-03-06T10:54:32.171Z,1.50
2019-03-06T10:57:04.006Z,1.62
2019-03-06T10:59:36.133Z,1.73
2019-03-06T11:02:06.785Z,1.90
2019-03-06T11:04:54.797Z,1.67
2019-03-06T11:07:26.938Z,1.40
2019-03-06T11:09:57.740Z,1.67
2019-03-06T11:12:29.636Z,1.80
2019-03-06T11:14:59.931Z,1.72
2019-03-06T11:17:37.847Z,1.73
2019-03-06T11:20:10.814Z,1.72
2019-03-06T11:22:41.339Z,1.67
2019-03-06T11:25:13.296Z,1.90
2019-03-06T11:27:44.557Z,1.77
2019-03-06T11:30:25.806Z,1.45
2019-03-06T11:32:57.840Z,1.52
2019-03-06T11:35:29.095Z,1.60
2019-03-06T11:38:10.725Z,1.80
2019-03-06T11:40:37.284Z,1.90
2019-03-06T11:43:10.639Z,1.40
2019-03-06T11:45:41.896Z,1.67
2019-03-06T11:48:13.103Z,1.60
2019-03-06T11:50:44.072Z,1.32
2019-03-06T11:53:14.883Z,1.67
2019-03-06T11:55:45.722Z,1.70
2019-03-06T11:58:17.924Z,1.40
2019-03-06T12:00:48.613Z,1.60
2019-03-06T12:03:23.452Z,1.60
2019-03-06T12:05:55.642Z,1.30
2019-03-06T12:08:26.772Z,1.57
2019-03-06T12:10:57.136Z,1.40
2019-03-06T12:13:27.479Z,1.77
2019-03-06T12:15:58.318Z,1.53
2019-03-06T12:18:29.216Z,1.20
2019-03-06T12:21:00.756Z,1.40
2019-03-06T12:23:31.881Z,1.77
2019-03-06T12:26:02.203Z,1.70
2019-03-06T12:28:33.112Z,1.40
2019-03-06T12:31:11.828Z,1.40
2019-03-06T12:33:42.354Z,1.20
2019-03-06T12:36:21.403Z,1.15
2019-03-06T12:38:48.918Z,1.27
2019-03-06T12:41:23.791Z,1.62
2019-03-06T12:43:54.080Z,1.47
2019-03-06T12:46:27.992Z,1.45
2019-03-06T12:49:04.314Z,1.57
2019-03-06T12:51:36.570Z,1.50
2019-03-06T12:54:09.074Z,1.47
2019-03-06T12:56:39.540Z,1.90
2019-03-06T12:59:10.226Z,1.90
2019-03-06T13:01:43.721Z,1.20
2019-03-06T13:04:14.088Z,1.33
2019-03-06T13:06:55.654Z,1.73
2019-03-06T13:09:22.259Z,1.40
2019-03-06T13:11:55.574Z,1.52
2019-03-06T13:14:26.618Z,1.53
2019-03-06T13:16:58.540Z,1.57
2019-03-06T13:19:29.105Z,1.27
2019-03-06T13:21:59.557Z,1.33
2019-03-06T13:24:29.953Z,1.40
2019-03-06T13:29:36.838Z,1.50
2019-03-06T13:32:11.638Z,1.15
2019-03-06T13:34:50.775Z,1.20
2019-03-06T13:37:19.230Z,1.80
2019-03-06T13:39:49.616Z,1.30
2019-03-06T13:42:19.942Z,1.47
2019-03-06T13:44:50.220Z,1.40
2019-03-06T13:47:22.897Z,1.22
2019-03-06T13:49:55.200Z,1.50
2019-03-06T13:52:27.092Z,1.80
2019-03-06T13:54:57.426Z,1.50
2019-03-06T13:57:29.215Z,1.53
2019-03-06T13:59:59.708Z,1.47
2019-03-06T14:02:30.702Z,1.20
2019-03-06T14:05:01.148Z,1.40
2019-03-06T14:07:33.320Z,1.32
2019-03-06T14:10:04.140Z,1.60
2019-03-06T14:12:34.666Z,1.35
2019-03-06T14:15:05.821Z,1.30
2019-03-06T14:17:37.927Z,1.47
2019-03-06T14:20:09.977Z,1.10
2019-03-06T14:22:44.204Z,1.53
2019-03-06T14:25:18.211Z,1.87
2019-03-06T14:27:52.328Z,1.43
2019-03-06T14:30:23.064Z,1.60
2019-03-06T14:32:56.000Z,1.40
2019-03-06T14:35:27.169Z,1.20
2019-03-06T14:38:02.702Z,1.30
2019-03-06T14:40:32.833Z,1.60
2019-03-06T14:43:07.583Z,1.65
2019-03-06T14:45:37.985Z,1.50
2019-03-06T14:48:20.601Z,2.30
2019-03-06T14:50:47.815Z,2.10
2019-03-06T14:53:24.709Z,1.60
2019-03-06T14:55:56.951Z,2.40
2019-03-06T14:58:32.028Z,2.07
2019-03-06T15:01:02.511Z,1.70
2019-03-06T15:03:32.838Z,1.93
2019-03-06T15:06:03.341Z,1.80
2019-03-06T15:08:33.984Z,2.30
2019-03-06T15:11:08.248Z,1.73
2019-03-06T15:13:51.504Z,2.00
2019-03-06T15:16:23.626Z,1.90
2019-03-06T15:18:58.547Z,1.50
2019-03-06T15:21:29.968Z,2.15
2019-03-06T15:24:00.436Z,1.80
2019-03-06T15:26:34.547Z,1.70
2019-03-06T15:29:05.081Z,1.57
2019-03-06T15:31:36.297Z,1.60
2019-03-06T15:34:10.388Z,1.83
2019-03-06T15:36:42.684Z,2.03
2019-03-06T15:39:30.121Z,1.60
2019-03-06T15:42:05.040Z,1.53
2019-03-06T15:44:38.050Z,1.70
2019-03-06T15:47:08.612Z,1.73
2019-03-06T15:49:38.933Z,2.30
2019-03-06T15:52:10.990Z,2.00
2019-03-06T15:54:43.047Z,1.70
2019-03-06T15:57:15.049Z,1.87
2019-03-06T15:59:46.514Z,2.00
2019-03-06T16:02:16.823Z,1.85
2019-03-06T16:04:52.386Z,1.43
2019-03-06T16:07:26.386Z,1.77
2019-03-06T16:09:59.771Z,1.77
2019-03-06T16:12:30.095Z,1.92
2019-03-06T16:15:03.327Z,1.90
2019-03-06T16:17:34.175Z,1.98
2019-03-06T16:20:10.107Z,1.80
2019-03-06T16:22:41.560Z,1.80
2019-03-06T16:25:17.372Z,1.97
2019-03-06T16:27:49.895Z,1.60
2019-03-06T16:30:21.186Z,1.83
2019-03-06T16:32:53.618Z,1.80
2019-03-06T16:35:29.188Z,1.95
2019-03-06T16:38:00.113Z,2.50
2019-03-06T16:40:33.526Z,2.00
2019-03-06T16:43:04.735Z,2.12
2019-03-06T16:45:42.099Z,2.20
2019-03-06T16:48:12.360Z,2.10
2019-03-06T16:50:49.035Z,2.07
2019-03-06T16:53:19.241Z,2.30
2019-03-06T16:55:58.619Z,2.20
2019-03-06T16:58:28.619Z,2.37
2019-03-06T17:01:02.091Z,2.58
2019-03-06T17:03:33.464Z,2.63
2019-03-06T17:06:11.774Z,2.10
2019-03-06T17:08:42.403Z,2.83
2019-03-06T17:11:16.814Z,2.63
2019-03-06T17:13:47.224Z,2.60
2019-03-06T17:16:21.036Z,2.83
2019-03-06T17:18:51.503Z,2.80
2019-03-06T17:21:22.170Z,3.67
2019-03-06T17:23:55.882Z,3.20
2019-03-06T17:26:32.472Z,3.44
2019-03-06T17:29:12.168Z,3.30
2019-03-06T17:31:45.152Z,3.72
2019-03-06T17:34:15.624Z,3.47
2019-03-06T17:37:24.547Z,3.50
2019-03-06T17:40:05.836Z,3.63
2019-03-06T17:42:36.598Z,3.43
2019-03-06T17:45:09.390Z,3.60
2019-03-06T17:47:39.818Z,3.80
2019-03-06T17:50:15.876Z,4.00
2019-03-06T17:52:48.119Z,4.05
2019-03-06T17:55:21.657Z,3.77
2019-03-06T17:57:53.315Z,3.50
2019-03-06T18:00:53.376Z,3.73
2019-03-06T18:03:42.014Z,3.50
2019-03-06T18:06:14.280Z,3.67
2019-03-06T18:08:50.763Z,4.03
2019-03-06T18:11:22.545Z,4.10
2019-03-06T18:14:00.894Z,3.73
2019-03-06T18:16:31.231Z,3.90
2019-03-06T18:19:06.410Z,3.93
2019-03-06T18:21:36.190Z,3.90
2019-03-06T18:24:15.699Z,3.63
2019-03-06T18:26:49.933Z,3.77
2019-03-06T18:29:27.396Z,3.87
2019-03-06T18:31:57.686Z,4.23
2019-03-06T18:34:31.076Z,3.40
2019-03-06T18:37:03.064Z,3.90
2019-03-06T18:39:38.513Z,3.37
2019-03-06T18:42:10.793Z,3.70
2019-03-06T18:45:05.238Z,3.83
2019-03-06T18:47:37.416Z,3.70
2019-03-06T18:50:31.043Z,3.20
2019-03-06T18:53:03.723Z,3.10
2019-03-06T18:55:41.188Z,3.27
2019-03-06T18:58:13.352Z,3.50
2019-03-06T19:00:45.334Z,3.80
2019-03-06T19:03:16.501Z,3.00
2019-03-06T19:05:55.805Z,3.05
2019-03-06T19:08:31.675Z,3.63
2019-03-06T19:11:16.607Z,3.27
2019-03-06T19:13:41.277Z,3.87
2019-03-06T19:16:14.425Z,3.13
2019-03-06T19:18:55.466Z,2.77
2019-03-06T19:21:27.607Z,2.63
2019-03-06T19:24:00.839Z,2.83
2019-03-06T19:26:33.029Z,4.43
2019-03-06T19:29:08.030Z,2.72
2019-03-06T19:31:38.366Z,2.53
2019-03-06T19:34:16.778Z,2.87
2019-03-06T19:36:45.766Z,2.37
2019-03-06T19:39:23.206Z,2.58
2019-03-06T19:41:53.719Z,2.80
2019-03-06T19:47:06.578Z,2.53
2019-03-06T19:49:44.256Z,2.75
2019-03-06T19:52:21.343Z,2.63
2019-03-06T19:54:50.667Z,2.75
2019-03-06T19:57:21.388Z,2.67
2019-03-06T19:59:56.611Z,2.87
2019-03-06T20:02:30.603Z,2.37
2019-03-06T20:07:50.415Z,2.87
2019-03-06T20:10:27.086Z,2.90
2019-03-06T20:12:59.354Z,2.67
2019-03-06T20:15:29.773Z,3.07
2019-03-06T20:18:00.430Z,2.87
2019-03-06T20:20:30.944Z,3.50
2019-03-06T20:23:01.816Z,3.85
2019-03-06T20:25:57.029Z,4.03
2019-03-06T20:28:29.327Z,3.70
2019-03-06T20:31:24.188Z,4.17
2019-03-06T20:33:56.634Z,3.70
2019-03-06T20:42:28.175Z,4.20
2019-03-06T20:45:13.962Z,4.17
2019-03-06T20:47:45.774Z,4.10
2019-03-06T20:50:24.210Z,4.20
2019-03-06T20:53:13.987Z,4.53
2019-03-06T20:55:45.171Z,4.37
2019-03-06T20:58:15.872Z,4.53
2019-03-06T21:00:46.596Z,4.17
2019-03-06T21:03:18.670Z,4.10
2019-03-06T21:05:50.538Z,4.30
2019-03-06T21:08:59.730Z,4.27
2019-03-06T21:11:22.890Z,4.07
2019-03-06T21:13:57.208Z,4.30
2019-03-06T21:16:27.196Z,4.70
2019-03-06T21:18:59.011Z,3.83
2019-03-06T21:21:29.442Z,4.47
2019-03-06T21:24:06.174Z,4.85
2019-03-06T21:26:36.764Z,4.63
2019-03-06T21:29:28.631Z,4.60
2019-03-06T21:31:47.259Z,4.78
2019-03-06T21:34:41.628Z,5.13
2019-03-06T21:36:50.239Z,4.20
2019-03-06T21:39:36.826Z,4.33
2019-03-06T21:41:59.397Z,4.76
2019-03-06T21:44:34.149Z,4.17
2019-03-06T21:47:05.623Z,3.78
2019-03-06T21:49:39.770Z,3.90
2019-03-06T21:52:10.522Z,3.27
2019-03-06T21:54:59.687Z,3.72
2019-03-06T21:57:31.190Z,3.77
2019-03-06T22:00:07.502Z,3.20
2019-03-06T22:02:40.072Z,3.02
2019-03-06T22:05:10.721Z,3.40
2019-03-06T22:07:57.008Z,3.67
2019-03-06T22:10:19.458Z,3.10
2019-03-06T22:13:05.486Z,3.23
2019-03-06T22:15:36.457Z,3.45
2019-03-06T22:18:13.701Z,3.47
2019-03-06T22:20:44.528Z,3.70
2019-03-06T22:23:16.575Z,3.77
2019-03-06T22:25:49.301Z,4.02
2019-03-06T22:28:19.687Z,3.87
2019-03-06T22:30:59.145Z,4.05
2019-03-06T22:36:41.372Z,4.30
2019-03-06T22:39:56.150Z,3.60
2019-03-06T22:42:39.574Z,4.27
2019-03-06T22:45:14.610Z,4.20
2019-03-06T22:48:24.917Z,4.40
2019-03-06T22:50:40.254Z,3.97
2019-03-06T22:53:22.180Z,3.98
2019-03-06T22:55:52.571Z,3.60
2019-03-06T22:58:31.682Z,3.65
2019-03-06T23:01:14.885Z,3.63
2019-03-06T23:03:46.810Z,3.60
2019-03-06T23:07:10.298Z,4.20
2019-03-06T23:09:20.371Z,3.90
2019-03-06T23:12:17.207Z,3.72
2019-03-06T23:14:55.999Z,3.77
2019-03-06T23:17:25.914Z,3.46
2019-03-06T23:19:56.302Z,3.77
2019-03-06T23:22:28.207Z,3.60
2019-03-06T23:25:57.883Z,3.57
2019-03-06T23:27:39.481Z,3.46
2019-03-06T23:30:11.603Z,3.80
2019-03-06T23:32:42.161Z,3.90
2019-03-06T23:35:16.720Z,3.57
2019-03-06T23:37:47.801Z,3.50
2019-03-06T23:40:19.663Z,3.57
2019-03-06T23:42:50.408Z,3.67
2019-03-06T23:45:27.286Z,3.63
2019-03-06T23:47:58.358Z,4.10
2019-03-06T23:50:29.785Z,3.90
2019-03-06T23:53:06.595Z,4.00
2019-03-06T23:55:40.999Z,3.80
2019-03-06T23:58:11.755Z,4.30
